HAWK55 KNLC-KNLC
Flight info
| Callsign | HAWK55 |
|---|---|
| Flight time | 1h 19m |
| Altitude | 11500 |
| Route | NLC |
| Aircraft | F35/M-SDFIRY/LB1 |
Departure
| Time | 2026-04-15 01:25 |
|---|---|
| Airport | Lemoore Naval Air Station (Reeves Field) Airport (KNLC) |
Arrival
| Time | 2026-04-15 02:44 |
|---|---|
| Airport | Lemoore Naval Air Station (Reeves Field) Airport (KNLC) |
| Time | Latitude | Longitude | Altitude | Speed | Heading |
|---|---|---|---|---|---|
| 2026-04-15 01:15 | 36.33114 | -119.94811 | 237 ft | 0 kts | 154° |
| 2026-04-15 01:21 | 36.33111 | -119.94763 | 237 ft | 11 kts | 65° |
| 2026-04-15 01:21 | 36.33084 | -119.94702 | 237 ft | 12 kts | 156° |
| 2026-04-15 01:21 | 36.33003 | -119.94657 | 237 ft | 12 kts | 156° |
| 2026-04-15 01:22 | 36.32928 | -119.94656 | 237 ft | 10 kts | 187° |
| 2026-04-15 01:22 | 36.32889 | -119.94638 | 237 ft | 5 kts | 88° |
| 2026-04-15 01:22 | 36.32909 | -119.94572 | 237 ft | 14 kts | 67° |
| 2026-04-15 01:22 | 36.32949 | -119.94459 | 237 ft | 13 kts | 66° |
| 2026-04-15 01:23 | 36.32983 | -119.94366 | 237 ft | 9 kts | 66° |
| 2026-04-15 01:23 | 36.33010 | -119.94289 | 236 ft | 13 kts | 66° |
| 2026-04-15 01:23 | 36.33095 | -119.94245 | 236 ft | 15 kts | 336° |
| 2026-04-15 01:23 | 36.33191 | -119.94297 | 237 ft | 14 kts | 337° |
| 2026-04-15 01:24 | 36.33286 | -119.94349 | 237 ft | 16 kts | 336° |
| 2026-04-15 01:24 | 36.33422 | -119.94424 | 236 ft | 34 kts | 336° |
| 2026-04-15 01:24 | 36.33789 | -119.94625 | 235 ft | 96 kts | 336° |
| 2026-04-15 01:24 | 36.34631 | -119.95085 | 268 ft | 154 kts | 338° |
| 2026-04-15 01:25 | 36.35731 | -119.95690 | 566 ft | 196 kts | 337° |
| 2026-04-15 01:25 | 36.37104 | -119.96444 | 1189 ft | 234 kts | 336° |
| 2026-04-15 01:25 | 36.38603 | -119.97266 | 1855 ft | 237 kts | 336° |
| 2026-04-15 01:25 | 36.40105 | -119.98086 | 2421 ft | 235 kts | 336° |
| 2026-04-15 01:26 | 36.41627 | -119.98923 | 2715 ft | 239 kts | 336° |
| 2026-04-15 01:26 | 36.43160 | -119.99774 | 2855 ft | 240 kts | 337° |
| 2026-04-15 01:26 | 36.44775 | -120.00144 | 2940 ft | 244 kts | 10° |
| 2026-04-15 01:26 | 36.46248 | -119.99172 | 2997 ft | 249 kts | 47° |
| 2026-04-15 01:27 | 36.46925 | -119.97229 | 3022 ft | 256 kts | 84° |
| 2026-04-15 01:27 | 36.46526 | -119.95170 | 3315 ft | 252 kts | 124° |
| 2026-04-15 01:27 | 36.45150 | -119.93727 | 4142 ft | 263 kts | 153° |
| 2026-04-15 01:27 | 36.43459 | -119.92785 | 4931 ft | 269 kts | 160° |
| 2026-04-15 01:28 | 36.41718 | -119.91949 | 5691 ft | 267 kts | 161° |
| 2026-04-15 01:28 | 36.39965 | -119.91145 | 6470 ft | 266 kts | 162° |
| 2026-04-15 01:28 | 36.38189 | -119.90349 | 7202 ft | 276 kts | 162° |
| 2026-04-15 01:28 | 36.36372 | -119.89550 | 7948 ft | 279 kts | 162° |
| 2026-04-15 01:29 | 36.34527 | -119.88755 | 8715 ft | 283 kts | 162° |
| 2026-04-15 01:29 | 36.32676 | -119.87971 | 9491 ft | 284 kts | 160° |
| 2026-04-15 01:29 | 36.30867 | -119.86902 | 10256 ft | 292 kts | 151° |
| 2026-04-15 01:29 | 36.29101 | -119.85627 | 10903 ft | 300 kts | 149° |
| 2026-04-15 01:30 | 36.27340 | -119.84277 | 11233 ft | 298 kts | 148° |
| 2026-04-15 01:30 | 36.25585 | -119.82891 | 11374 ft | 297 kts | 147° |
| 2026-04-15 01:30 | 36.23844 | -119.81501 | 11445 ft | 299 kts | 147° |
| 2026-04-15 01:30 | 36.22109 | -119.80109 | 11469 ft | 297 kts | 147° |
| 2026-04-15 01:31 | 36.20368 | -119.78710 | 11484 ft | 298 kts | 147° |
| 2026-04-15 01:31 | 36.18659 | -119.77334 | 11491 ft | 298 kts | 147° |
| 2026-04-15 01:31 | 36.16925 | -119.75937 | 11491 ft | 296 kts | 147° |
| 2026-04-15 01:31 | 36.15193 | -119.74541 | 11489 ft | 298 kts | 147° |
| 2026-04-15 01:32 | 36.13459 | -119.73145 | 11486 ft | 296 kts | 147° |
| 2026-04-15 01:32 | 36.11728 | -119.71752 | 11487 ft | 298 kts | 147° |
| 2026-04-15 01:32 | 36.09995 | -119.70357 | 11487 ft | 297 kts | 147° |
| 2026-04-15 01:32 | 36.08257 | -119.68959 | 11490 ft | 298 kts | 147° |
| 2026-04-15 01:33 | 36.06522 | -119.67565 | 11489 ft | 297 kts | 147° |
| 2026-04-15 01:33 | 36.04785 | -119.66170 | 11487 ft | 298 kts | 147° |
| 2026-04-15 01:33 | 36.03049 | -119.64774 | 11486 ft | 297 kts | 147° |
| 2026-04-15 01:33 | 36.01333 | -119.63395 | 11481 ft | 298 kts | 147° |
| 2026-04-15 01:34 | 35.99601 | -119.62002 | 11486 ft | 298 kts | 147° |
| 2026-04-15 01:34 | 35.97863 | -119.60604 | 11488 ft | 298 kts | 147° |
| 2026-04-15 01:34 | 35.96132 | -119.59211 | 11484 ft | 297 kts | 147° |
| 2026-04-15 01:34 | 35.94396 | -119.57815 | 11482 ft | 298 kts | 147° |
| 2026-04-15 01:35 | 35.92663 | -119.56420 | 11475 ft | 297 kts | 147° |
| 2026-04-15 01:35 | 35.90926 | -119.55025 | 11476 ft | 298 kts | 147° |
| 2026-04-15 01:35 | 35.89193 | -119.53632 | 11477 ft | 299 kts | 147° |
| 2026-04-15 01:35 | 35.87468 | -119.52251 | 11480 ft | 298 kts | 147° |
| 2026-04-15 01:36 | 35.85718 | -119.50869 | 11491 ft | 298 kts | 152° |
| 2026-04-15 01:36 | 35.83768 | -119.50324 | 12132 ft | 296 kts | 187° |
| 2026-04-15 01:36 | 35.81840 | -119.51129 | 12956 ft | 292 kts | 219° |
| 2026-04-15 01:36 | 35.80566 | -119.53021 | 13803 ft | 291 kts | 251° |
| 2026-04-15 01:37 | 35.80314 | -119.55437 | 14598 ft | 285 kts | 283° |
| 2026-04-15 01:37 | 35.81152 | -119.57635 | 15148 ft | 290 kts | 314° |
| 2026-04-15 01:37 | 35.82795 | -119.59038 | 15387 ft | 290 kts | 335° |
| 2026-04-15 01:37 | 35.84625 | -119.59970 | 15454 ft | 287 kts | 339° |
| 2026-04-15 01:38 | 35.86511 | -119.60780 | 15478 ft | 288 kts | 341° |
| 2026-04-15 01:38 | 35.88414 | -119.61537 | 15484 ft | 286 kts | 342° |
| 2026-04-15 01:38 | 35.90319 | -119.62266 | 15485 ft | 287 kts | 342° |
| 2026-04-15 01:38 | 35.92233 | -119.62982 | 15489 ft | 287 kts | 342° |
| 2026-04-15 01:39 | 35.94144 | -119.63684 | 15483 ft | 287 kts | 342° |
| 2026-04-15 01:39 | 35.96063 | -119.64382 | 15487 ft | 288 kts | 342° |
| 2026-04-15 01:39 | 35.97976 | -119.65074 | 15538 ft | 286 kts | 342° |
| 2026-04-15 01:39 | 35.99869 | -119.65757 | 15636 ft | 288 kts | 342° |
| 2026-04-15 01:40 | 36.01794 | -119.66452 | 15688 ft | 288 kts | 342° |
| 2026-04-15 01:40 | 36.03608 | -119.66475 | 15412 ft | 262 kts | 61° |
| 2026-04-15 01:40 | 36.03257 | -119.64466 | 14078 ft | 174 kts | 131° |
| 2026-04-15 01:40 | 36.04701 | -119.64509 | 8056 ft | 431 kts | 29° |
| 2026-04-15 01:41 | 36.04414 | -119.62042 | 7978 ft | 352 kts | 170° |
| 2026-04-15 01:41 | 36.02921 | -119.63614 | 7825 ft | 317 kts | 294° |
| 2026-04-15 01:41 | 36.03861 | -119.64356 | 10509 ft | 43 kts | 115° |
| 2026-04-15 01:41 | 36.03455 | -119.63717 | 10913 ft | 160 kts | 133° |
| 2026-04-15 01:42 | 36.02536 | -119.62128 | 10218 ft | 292 kts | 119° |
| 2026-04-15 01:42 | 36.01304 | -119.59468 | 9921 ft | 420 kts | 119° |
| 2026-04-15 01:42 | 35.99295 | -119.56577 | 9495 ft | 461 kts | 171° |
| 2026-04-15 01:42 | 35.96696 | -119.55955 | 9365 ft | 377 kts | 107° |
| 2026-04-15 01:43 | 35.97890 | -119.54072 | 9387 ft | 315 kts | 343° |
| 2026-04-15 01:43 | 35.98760 | -119.56015 | 10305 ft | 251 kts | 269° |
| 2026-04-15 01:43 | 35.98353 | -119.58128 | 11226 ft | 297 kts | 241° |
| 2026-04-15 01:43 | 35.97146 | -119.60596 | 10734 ft | 366 kts | 240° |
| 2026-04-15 01:44 | 35.95978 | -119.63531 | 10549 ft | 388 kts | 269° |
| 2026-04-15 01:44 | 35.97049 | -119.66468 | 9896 ft | 408 kts | 315° |
| 2026-04-15 01:44 | 35.99730 | -119.67759 | 7369 ft | 442 kts | 2° |
| 2026-04-15 01:44 | 36.02759 | -119.67538 | 7406 ft | 435 kts | 2° |
| 2026-04-15 01:45 | 36.05766 | -119.67354 | 7009 ft | 423 kts | 359° |
| 2026-04-15 01:45 | 36.07431 | -119.65229 | 5233 ft | 373 kts | 130° |
| 2026-04-15 01:45 | 36.06768 | -119.64769 | 10935 ft | 184 kts | 15° |
| 2026-04-15 01:45 | 36.07986 | -119.65622 | 11559 ft | 265 kts | 256° |
| 2026-04-15 01:46 | 36.06382 | -119.66850 | 12983 ft | 338 kts | 201° |
| 2026-04-15 01:46 | 36.03795 | -119.67687 | 13863 ft | 441 kts | 186° |
| 2026-04-15 01:46 | 36.00646 | -119.67746 | 14043 ft | 442 kts | 180° |
| 2026-04-15 01:46 | 35.97703 | -119.67020 | 14383 ft | 433 kts | 161° |
| 2026-04-15 01:47 | 35.94936 | -119.65803 | 14565 ft | 412 kts | 161° |
| 2026-04-15 01:47 | 35.92260 | -119.64602 | 14744 ft | 406 kts | 161° |
| 2026-04-15 01:47 | 35.89630 | -119.63419 | 14919 ft | 400 kts | 161° |
| 2026-04-15 01:47 | 35.87206 | -119.61916 | 15020 ft | 386 kts | 138° |
| 2026-04-15 01:48 | 35.85197 | -119.59697 | 14999 ft | 390 kts | 138° |
| 2026-04-15 01:48 | 35.83187 | -119.57459 | 14974 ft | 389 kts | 137° |
| 2026-04-15 01:48 | 35.81535 | -119.54961 | 14899 ft | 364 kts | 98° |
| 2026-04-15 01:48 | 35.82120 | -119.52245 | 14902 ft | 330 kts | 51° |
| 2026-04-15 01:49 | 35.83893 | -119.50575 | 14618 ft | 327 kts | 18° |
| 2026-04-15 01:49 | 35.86070 | -119.50543 | 14395 ft | 317 kts | 340° |
| 2026-04-15 01:49 | 35.87896 | -119.52163 | 13317 ft | 342 kts | 300° |
| 2026-04-15 01:49 | 35.87763 | -119.54465 | 14562 ft | 230 kts | 209° |
| 2026-04-15 01:50 | 35.86698 | -119.53976 | 13725 ft | 174 kts | 80° |
| 2026-04-15 01:50 | 35.87652 | -119.53182 | 11691 ft | 193 kts | 345° |
| 2026-04-15 01:50 | 35.88806 | -119.54206 | 11424 ft | 217 kts | 308° |
| 2026-04-15 01:50 | 35.89499 | -119.55793 | 12361 ft | 214 kts | 293° |
| 2026-04-15 01:51 | 35.89961 | -119.57522 | 13384 ft | 209 kts | 285° |
| 2026-04-15 01:51 | 35.90160 | -119.59245 | 14413 ft | 196 kts | 273° |
| 2026-04-15 01:51 | 35.89941 | -119.60812 | 15311 ft | 176 kts | 250° |
| 2026-04-15 01:51 | 35.89159 | -119.61816 | 15780 ft | 169 kts | 192° |
| 2026-04-15 01:52 | 35.88263 | -119.60844 | 13508 ft | 243 kts | 73° |
| 2026-04-15 01:52 | 35.89517 | -119.59855 | 12906 ft | 268 kts | 348° |
| 2026-04-15 01:52 | 35.91422 | -119.60867 | 13079 ft | 331 kts | 339° |
| 2026-04-15 01:52 | 35.94079 | -119.61757 | 9293 ft | 506 kts | 341° |
| 2026-04-15 01:53 | 35.97146 | -119.63307 | 7666 ft | 451 kts | 335° |
| 2026-04-15 01:53 | 35.99754 | -119.64936 | 7057 ft | 389 kts | 328° |
| 2026-04-15 01:53 | 36.01883 | -119.66622 | 6743 ft | 340 kts | 326° |
| 2026-04-15 01:53 | 36.03699 | -119.68181 | 6608 ft | 298 kts | 323° |
| 2026-04-15 01:54 | 36.05253 | -119.69681 | 6399 ft | 277 kts | 320° |
| 2026-04-15 01:54 | 36.06706 | -119.71224 | 6163 ft | 275 kts | 318° |
| 2026-04-15 01:54 | 36.08094 | -119.72849 | 5920 ft | 274 kts | 315° |
| 2026-04-15 01:54 | 36.09481 | -119.74454 | 5670 ft | 272 kts | 317° |
| 2026-04-15 01:55 | 36.10904 | -119.76007 | 5267 ft | 278 kts | 319° |
| 2026-04-15 01:55 | 36.12253 | -119.77494 | 5018 ft | 248 kts | 318° |
| 2026-04-15 01:55 | 36.13545 | -119.78936 | 5018 ft | 249 kts | 317° |
| 2026-04-15 01:55 | 36.14827 | -119.80383 | 5009 ft | 248 kts | 317° |
| 2026-04-15 01:56 | 36.16102 | -119.81824 | 4995 ft | 250 kts | 317° |
| 2026-04-15 01:56 | 36.17554 | -119.83499 | 4583 ft | 318 kts | 317° |
| 2026-04-15 01:56 | 36.19269 | -119.85494 | 4118 ft | 355 kts | 317° |
| 2026-04-15 01:56 | 36.21138 | -119.87668 | 3626 ft | 381 kts | 317° |
| 2026-04-15 01:57 | 36.23125 | -119.89812 | 2984 ft | 376 kts | 323° |
| 2026-04-15 01:57 | 36.25306 | -119.91525 | 2035 ft | 368 kts | 332° |
| 2026-04-15 01:57 | 36.27561 | -119.92894 | 1198 ft | 360 kts | 336° |
| 2026-04-15 01:57 | 36.29817 | -119.94148 | 1125 ft | 354 kts | 336° |
| 2026-04-15 01:58 | 36.32050 | -119.95380 | 1103 ft | 349 kts | 336° |
| 2026-04-15 01:58 | 36.31927 | -119.96992 | 1209 ft | 244 kts | 176° |
| 2026-04-15 01:58 | 36.30331 | -119.96271 | 1237 ft | 243 kts | 157° |
| 2026-04-15 01:58 | 36.28941 | -119.95556 | 1222 ft | 189 kts | 157° |
| 2026-04-15 01:59 | 36.27803 | -119.94921 | 1190 ft | 176 kts | 141° |
| 2026-04-15 01:59 | 36.27520 | -119.93666 | 1060 ft | 158 kts | 48° |
| 2026-04-15 01:59 | 36.28501 | -119.93436 | 842 ft | 152 kts | 342° |
| 2026-04-15 01:59 | 36.29459 | -119.93960 | 509 ft | 155 kts | 337° |
| 2026-04-15 02:00 | 36.30421 | -119.94488 | 249 ft | 150 kts | 338° |
| 2026-04-15 02:00 | 36.31202 | -119.94912 | 235 ft | 94 kts | 336° |
| 2026-04-15 02:00 | 36.31931 | -119.95309 | 242 ft | 163 kts | 338° |
| 2026-04-15 02:00 | 36.33218 | -119.96013 | 611 ft | 248 kts | 337° |
| 2026-04-15 02:01 | 36.34499 | -119.97581 | 1144 ft | 287 kts | 266° |
| 2026-04-15 02:01 | 36.33111 | -119.98922 | 1168 ft | 282 kts | 171° |
| 2026-04-15 02:01 | 36.31385 | -119.98070 | 1222 ft | 256 kts | 156° |
| 2026-04-15 02:01 | 36.29835 | -119.97213 | 1183 ft | 232 kts | 155° |
| 2026-04-15 02:02 | 36.28574 | -119.96506 | 1127 ft | 174 kts | 154° |
| 2026-04-15 02:02 | 36.27489 | -119.95895 | 1151 ft | 169 kts | 154° |
| 2026-04-15 02:02 | 36.26772 | -119.94843 | 1081 ft | 159 kts | 91° |
| 2026-04-15 02:02 | 36.27200 | -119.93730 | 952 ft | 150 kts | 25° |
| 2026-04-15 02:03 | 36.28218 | -119.93496 | 831 ft | 151 kts | 355° |
| 2026-04-15 02:03 | 36.29218 | -119.93843 | 557 ft | 150 kts | 339° |
| 2026-04-15 02:03 | 36.30153 | -119.94356 | 268 ft | 141 kts | 338° |
| 2026-04-15 02:03 | 36.30924 | -119.94777 | 237 ft | 91 kts | 336° |
| 2026-04-15 02:04 | 36.31407 | -119.95043 | 236 ft | 66 kts | 336° |
| 2026-04-15 02:04 | 36.32126 | -119.95435 | 245 ft | 166 kts | 338° |
| 2026-04-15 02:04 | 36.33414 | -119.96128 | 645 ft | 242 kts | 338° |
| 2026-04-15 02:04 | 36.34516 | -119.97705 | 1189 ft | 277 kts | 264° |
| 2026-04-15 02:05 | 36.33143 | -119.98927 | 1365 ft | 264 kts | 171° |
| 2026-04-15 02:05 | 36.31444 | -119.98094 | 1356 ft | 265 kts | 156° |
| 2026-04-15 02:05 | 36.29779 | -119.97162 | 1360 ft | 261 kts | 155° |
| 2026-04-15 02:05 | 36.28141 | -119.96228 | 1372 ft | 258 kts | 155° |
| 2026-04-15 02:06 | 36.26570 | -119.95312 | 1350 ft | 234 kts | 154° |
| 2026-04-15 02:06 | 36.25395 | -119.94418 | 1319 ft | 173 kts | 120° |
| 2026-04-15 02:06 | 36.25540 | -119.93185 | 1142 ft | 163 kts | 27° |
| 2026-04-15 02:06 | 36.26593 | -119.92957 | 1008 ft | 142 kts | 357° |
| 2026-04-15 02:07 | 36.27605 | -119.93135 | 846 ft | 144 kts | 348° |
| 2026-04-15 02:07 | 36.28577 | -119.93510 | 597 ft | 146 kts | 339° |
| 2026-04-15 02:07 | 36.29508 | -119.94009 | 394 ft | 147 kts | 338° |
| 2026-04-15 02:07 | 36.30421 | -119.94504 | 236 ft | 137 kts | 338° |
| 2026-04-15 02:08 | 36.31112 | -119.94880 | 235 ft | 87 kts | 336° |
| 2026-04-15 02:08 | 36.31586 | -119.95140 | 237 ft | 66 kts | 336° |
| 2026-04-15 02:08 | 36.32216 | -119.95488 | 238 ft | 158 kts | 336° |
| 2026-04-15 02:08 | 36.33475 | -119.96175 | 478 ft | 234 kts | 337° |
| 2026-04-15 02:09 | 36.35001 | -119.97084 | 1194 ft | 233 kts | 304° |
| 2026-04-15 02:09 | 36.34297 | -119.98333 | 1437 ft | 228 kts | 188° |
| 2026-04-15 02:09 | 36.32686 | -119.98061 | 1446 ft | 233 kts | 160° |
| 2026-04-15 02:09 | 36.31194 | -119.97288 | 1451 ft | 236 kts | 153° |
| 2026-04-15 02:10 | 36.29739 | -119.96345 | 1458 ft | 229 kts | 151° |
| 2026-04-15 02:10 | 36.28479 | -119.95499 | 1371 ft | 175 kts | 150° |
| 2026-04-15 02:10 | 36.27544 | -119.94655 | 1288 ft | 180 kts | 106° |
| 2026-04-15 02:10 | 36.28013 | -119.93559 | 1164 ft | 157 kts | 11° |
| 2026-04-15 02:11 | 36.29023 | -119.93736 | 706 ft | 141 kts | 338° |
| 2026-04-15 02:11 | 36.29958 | -119.94251 | 343 ft | 146 kts | 338° |
| 2026-04-15 02:11 | 36.30790 | -119.94703 | 232 ft | 103 kts | 335° |
| 2026-04-15 02:11 | 36.31337 | -119.95005 | 236 ft | 73 kts | 336° |
| 2026-04-15 02:12 | 36.31886 | -119.95305 | 235 ft | 141 kts | 336° |
| 2026-04-15 02:12 | 36.33108 | -119.95960 | 506 ft | 245 kts | 337° |
| 2026-04-15 02:12 | 36.34864 | -119.96927 | 1159 ft | 271 kts | 336° |
| 2026-04-15 02:12 | 36.36454 | -119.97756 | 1965 ft | 235 kts | 338° |
| 2026-04-15 02:13 | 36.37660 | -119.99033 | 2741 ft | 240 kts | 300° |
| 2026-04-15 02:13 | 36.37948 | -120.01049 | 3556 ft | 249 kts | 261° |
| 2026-04-15 02:13 | 36.37143 | -120.02942 | 4372 ft | 257 kts | 224° |
| 2026-04-15 02:13 | 36.35566 | -120.03991 | 5181 ft | 262 kts | 199° |
| 2026-04-15 02:14 | 36.33808 | -120.04594 | 5941 ft | 264 kts | 194° |
| 2026-04-15 02:14 | 36.32007 | -120.05086 | 6715 ft | 268 kts | 193° |
| 2026-04-15 02:14 | 36.30168 | -120.05544 | 7441 ft | 272 kts | 192° |
| 2026-04-15 02:14 | 36.28287 | -120.05853 | 8211 ft | 277 kts | 177° |
| 2026-04-15 02:15 | 36.26383 | -120.05426 | 8978 ft | 282 kts | 166° |
| 2026-04-15 02:15 | 36.24465 | -120.04778 | 9763 ft | 287 kts | 163° |
| 2026-04-15 02:15 | 36.22541 | -120.04063 | 10500 ft | 293 kts | 163° |
| 2026-04-15 02:15 | 36.20584 | -120.03300 | 11035 ft | 298 kts | 162° |
| 2026-04-15 02:16 | 36.18621 | -120.02515 | 11279 ft | 298 kts | 162° |
| 2026-04-15 02:16 | 36.16658 | -120.01716 | 11392 ft | 297 kts | 162° |
| 2026-04-15 02:16 | 36.14695 | -120.00909 | 11443 ft | 297 kts | 162° |
| 2026-04-15 02:16 | 36.12732 | -120.00097 | 11467 ft | 296 kts | 162° |
| 2026-04-15 02:17 | 36.10771 | -119.99284 | 11478 ft | 296 kts | 162° |
| 2026-04-15 02:17 | 36.08815 | -119.98471 | 11476 ft | 297 kts | 162° |
| 2026-04-15 02:17 | 36.06888 | -119.97669 | 11480 ft | 297 kts | 162° |
| 2026-04-15 02:17 | 36.04930 | -119.96854 | 11479 ft | 296 kts | 162° |
| 2026-04-15 02:18 | 36.02977 | -119.96041 | 11478 ft | 295 kts | 162° |
| 2026-04-15 02:18 | 36.01027 | -119.95229 | 11481 ft | 297 kts | 162° |
| 2026-04-15 02:18 | 35.99078 | -119.94417 | 11480 ft | 295 kts | 162° |
| 2026-04-15 02:18 | 35.97128 | -119.93604 | 11479 ft | 296 kts | 162° |
| 2026-04-15 02:19 | 35.95180 | -119.92792 | 11478 ft | 296 kts | 162° |
| 2026-04-15 02:19 | 35.93248 | -119.91984 | 12139 ft | 299 kts | 162° |
| 2026-04-15 02:19 | 35.91286 | -119.91156 | 12908 ft | 300 kts | 162° |
| 2026-04-15 02:19 | 35.89312 | -119.90315 | 13678 ft | 306 kts | 162° |
| 2026-04-15 02:20 | 35.87297 | -119.89448 | 14406 ft | 311 kts | 162° |
| 2026-04-15 02:20 | 35.85234 | -119.88557 | 15130 ft | 316 kts | 162° |
| 2026-04-15 02:20 | 35.83144 | -119.87657 | 15825 ft | 324 kts | 162° |
| 2026-04-15 02:20 | 35.81005 | -119.86738 | 16371 ft | 324 kts | 162° |
| 2026-04-15 02:21 | 35.79082 | -119.85378 | 16656 ft | 326 kts | 129° |
| 2026-04-15 02:21 | 35.78284 | -119.82791 | 16812 ft | 337 kts | 88° |
| 2026-04-15 02:21 | 35.78909 | -119.80010 | 16614 ft | 353 kts | 54° |
| 2026-04-15 02:21 | 35.80784 | -119.77991 | 16087 ft | 379 kts | 18° |
| 2026-04-15 02:22 | 35.83430 | -119.77733 | 16016 ft | 397 kts | 344° |
| 2026-04-15 02:22 | 35.86147 | -119.78992 | 14663 ft | 429 kts | 334° |
| 2026-04-15 02:22 | 35.88782 | -119.80684 | 10860 ft | 426 kts | 331° |
| 2026-04-15 02:23 | 35.93935 | -119.80710 | 7375 ft | 436 kts | 79° |
| 2026-04-15 02:23 | 35.94341 | -119.77233 | 8361 ft | 396 kts | 81° |
| 2026-04-15 02:23 | 35.94331 | -119.73870 | 9270 ft | 394 kts | 137° |
| 2026-04-15 02:23 | 35.91830 | -119.73571 | 10555 ft | 377 kts | 195° |
| 2026-04-15 02:24 | 35.89284 | -119.74382 | 12177 ft | 387 kts | 197° |
| 2026-04-15 02:24 | 35.86677 | -119.75249 | 14001 ft | 389 kts | 197° |
| 2026-04-15 02:24 | 35.84060 | -119.76126 | 15557 ft | 397 kts | 197° |
| 2026-04-15 02:24 | 35.82464 | -119.78374 | 15860 ft | 371 kts | 278° |
| 2026-04-15 02:25 | 35.84275 | -119.80336 | 14187 ft | 384 kts | 348° |
| 2026-04-15 02:25 | 35.86888 | -119.81007 | 11820 ft | 383 kts | 346° |
| 2026-04-15 02:25 | 35.89466 | -119.81774 | 9252 ft | 378 kts | 345° |
| 2026-04-15 02:25 | 35.92296 | -119.81985 | 6629 ft | 480 kts | 38° |
| 2026-04-15 02:26 | 35.93273 | -119.78411 | 10689 ft | 426 kts | 82° |
| 2026-04-15 02:26 | 35.93045 | -119.75333 | 14712 ft | 314 kts | 144° |
| 2026-04-15 02:26 | 35.91191 | -119.75388 | 16265 ft | 291 kts | 201° |
| 2026-04-15 02:26 | 35.89420 | -119.76112 | 16303 ft | 245 kts | 203° |
| 2026-04-15 02:27 | 35.87944 | -119.76722 | 16208 ft | 202 kts | 203° |
| 2026-04-15 02:27 | 35.86575 | -119.77276 | 16025 ft | 230 kts | 202° |
| 2026-04-15 02:27 | 35.85529 | -119.77720 | 16009 ft | 246 kts | 214° |
| 2026-04-15 02:27 | 35.85102 | -119.79713 | 14689 ft | 292 kts | 305° |
| 2026-04-15 02:28 | 35.86788 | -119.80857 | 13266 ft | 284 kts | 341° |
| 2026-04-15 02:28 | 35.89406 | -119.81832 | 9227 ft | 336 kts | 342° |
| 2026-04-15 02:28 | 35.91806 | -119.82712 | 6087 ft | 374 kts | 353° |
| 2026-04-15 02:28 | 35.93447 | -119.81053 | 6498 ft | 320 kts | 75° |
| 2026-04-15 02:29 | 35.93674 | -119.79391 | 7728 ft | 281 kts | 79° |
| 2026-04-15 02:29 | 35.93915 | -119.77220 | 9606 ft | 235 kts | 81° |
| 2026-04-15 02:29 | 35.92950 | -119.75565 | 10272 ft | 293 kts | 144° |
| 2026-04-15 02:29 | 35.91294 | -119.74117 | 10679 ft | 290 kts | 145° |
| 2026-04-15 02:30 | 35.89571 | -119.72757 | 11424 ft | 295 kts | 149° |
| 2026-04-15 02:30 | 35.87171 | -119.71105 | 12414 ft | 302 kts | 154° |
| 2026-04-15 02:30 | 35.85278 | -119.69975 | 13187 ft | 304 kts | 156° |
| 2026-04-15 02:30 | 35.83334 | -119.68869 | 13969 ft | 311 kts | 156° |
| 2026-04-15 02:31 | 35.82022 | -119.68148 | 14439 ft | 311 kts | 161° |
| 2026-04-15 02:31 | 35.79888 | -119.67800 | 15031 ft | 316 kts | 191° |
| 2026-04-15 02:31 | 35.77888 | -119.68743 | 15318 ft | 307 kts | 221° |
| 2026-04-15 02:31 | 35.76430 | -119.70638 | 15437 ft | 303 kts | 237° |
| 2026-04-15 02:32 | 35.75219 | -119.72741 | 15478 ft | 303 kts | 240° |
| 2026-04-15 02:32 | 35.74098 | -119.74915 | 15491 ft | 297 kts | 248° |
| 2026-04-15 02:32 | 35.73711 | -119.77354 | 15531 ft | 291 kts | 279° |
| 2026-04-15 02:32 | 35.74406 | -119.79632 | 15552 ft | 288 kts | 304° |
| 2026-04-15 02:33 | 35.75562 | -119.81626 | 15528 ft | 285 kts | 309° |
| 2026-04-15 02:33 | 35.76821 | -119.83527 | 15510 ft | 286 kts | 311° |
| 2026-04-15 02:33 | 35.78098 | -119.85361 | 15504 ft | 286 kts | 311° |
| 2026-04-15 02:33 | 35.79413 | -119.87201 | 15500 ft | 286 kts | 312° |
| 2026-04-15 02:34 | 35.80735 | -119.89030 | 15497 ft | 286 kts | 312° |
| 2026-04-15 02:34 | 35.82064 | -119.90856 | 15497 ft | 287 kts | 313° |
| 2026-04-15 02:34 | 35.83538 | -119.92496 | 15499 ft | 287 kts | 322° |
| 2026-04-15 02:34 | 35.85156 | -119.93919 | 15498 ft | 285 kts | 325° |
| 2026-04-15 02:35 | 35.86821 | -119.95272 | 15501 ft | 286 kts | 326° |
| 2026-04-15 02:35 | 35.88494 | -119.96586 | 15496 ft | 286 kts | 327° |
| 2026-04-15 02:35 | 35.90182 | -119.97890 | 15496 ft | 286 kts | 327° |
| 2026-04-15 02:35 | 35.91848 | -119.99166 | 15495 ft | 286 kts | 327° |
| 2026-04-15 02:36 | 35.93537 | -120.00456 | 15495 ft | 285 kts | 327° |
| 2026-04-15 02:36 | 35.95232 | -120.01748 | 15502 ft | 286 kts | 327° |
| 2026-04-15 02:36 | 35.96923 | -120.03035 | 15502 ft | 286 kts | 327° |
| 2026-04-15 02:36 | 35.98619 | -120.04326 | 15503 ft | 286 kts | 327° |
| 2026-04-15 02:37 | 36.00447 | -120.05227 | 15517 ft | 289 kts | 353° |
| 2026-04-15 02:37 | 36.02432 | -120.04785 | 15550 ft | 297 kts | 25° |
| 2026-04-15 02:37 | 36.04088 | -120.03212 | 15553 ft | 306 kts | 44° |
| 2026-04-15 02:37 | 36.05449 | -120.01196 | 15532 ft | 306 kts | 50° |
| 2026-04-15 02:38 | 36.06703 | -119.99105 | 15525 ft | 307 kts | 51° |
| 2026-04-15 02:38 | 36.07946 | -119.96943 | 14932 ft | 306 kts | 52° |
| 2026-04-15 02:38 | 36.09154 | -119.94804 | 14216 ft | 302 kts | 52° |
| 2026-04-15 02:38 | 36.10363 | -119.92693 | 13485 ft | 295 kts | 50° |
| 2026-04-15 02:39 | 36.11615 | -119.90786 | 12298 ft | 295 kts | 46° |
| 2026-04-15 02:39 | 36.12970 | -119.88959 | 10814 ft | 251 kts | 43° |
| 2026-04-15 02:39 | 36.14298 | -119.88028 | 9223 ft | 209 kts | 10° |
| 2026-04-15 02:39 | 36.15660 | -119.87870 | 7874 ft | 184 kts | 356° |
| 2026-04-15 02:40 | 36.16821 | -119.88021 | 6989 ft | 155 kts | 347° |
| 2026-04-15 02:40 | 36.17869 | -119.88283 | 6215 ft | 154 kts | 344° |
| 2026-04-15 02:40 | 36.18902 | -119.88610 | 5532 ft | 152 kts | 340° |
| 2026-04-15 02:40 | 36.19863 | -119.89028 | 4892 ft | 144 kts | 338° |
| 2026-04-15 02:41 | 36.20795 | -119.89473 | 4278 ft | 143 kts | 338° |
| 2026-04-15 02:41 | 36.21714 | -119.89923 | 3732 ft | 141 kts | 338° |
| 2026-04-15 02:41 | 36.22604 | -119.90366 | 3303 ft | 135 kts | 338° |
| 2026-04-15 02:41 | 36.23466 | -119.90800 | 2906 ft | 135 kts | 338° |
| 2026-04-15 02:42 | 36.24323 | -119.91241 | 2557 ft | 136 kts | 338° |
| 2026-04-15 02:42 | 36.25191 | -119.91698 | 2228 ft | 135 kts | 338° |
| 2026-04-15 02:42 | 36.26058 | -119.92153 | 1897 ft | 137 kts | 338° |
| 2026-04-15 02:42 | 36.26947 | -119.92619 | 1637 ft | 138 kts | 338° |
| 2026-04-15 02:43 | 36.27758 | -119.93043 | 1260 ft | 127 kts | 337° |
| 2026-04-15 02:43 | 36.28590 | -119.93492 | 819 ft | 136 kts | 339° |
| 2026-04-15 02:43 | 36.29458 | -119.93953 | 487 ft | 134 kts | 338° |
| 2026-04-15 02:43 | 36.30290 | -119.94397 | 249 ft | 123 kts | 338° |
| 2026-04-15 02:44 | 36.30908 | -119.94731 | 233 ft | 74 kts | 336° |
| 2026-04-15 02:44 | 36.31316 | -119.94954 | 236 ft | 56 kts | 336° |
| 2026-04-15 02:44 | 36.31637 | -119.95128 | 234 ft | 46 kts | 338° |
| 2026-04-15 02:44 | 36.31914 | -119.95168 | 234 ft | 37 kts | 359° |
| 2026-04-15 02:45 | 36.32144 | -119.95241 | 235 ft | 32 kts | 336° |
| 2026-04-15 02:45 | 36.32345 | -119.95347 | 235 ft | 30 kts | 337° |
| 2026-04-15 02:45 | 36.32530 | -119.95449 | 235 ft | 27 kts | 336° |
| 2026-04-15 02:45 | 36.32622 | -119.95366 | 238 ft | 18 kts | 65° |
| 2026-04-15 02:46 | 36.32684 | -119.95200 | 238 ft | 19 kts | 62° |
| 2026-04-15 02:46 | 36.32736 | -119.95173 | 236 ft | 0 kts | 336° |